sensor_id;sensor_type;location;lat;lon;timestamp;P1;durP1;ratioP1;P2;durP2;ratioP2
7983;SDS011;4037;47.980;10.172;2023-12-14T00:00:46;2.43;;;1.87;;
7983;SDS011;4037;47.980;10.172;2023-12-14T00:03:12;1.90;;;1.80;;
7983;SDS011;4037;47.980;10.172;2023-12-14T00:05:38;2.13;;;1.57;;
7983;SDS011;4037;47.980;10.172;2023-12-14T00:08:04;1.80;;;1.70;;
7983;SDS011;4037;47.980;10.172;2023-12-14T00:10:30;1.60;;;1.50;;
7983;SDS011;4037;47.980;10.172;2023-12-14T00:12:56;2.33;;;1.63;;
7983;SDS011;4037;47.980;10.172;2023-12-14T00:15:22;1.93;;;1.80;;
7983;SDS011;4037;47.980;10.172;2023-12-14T00:17:48;2.27;;;1.90;;
7983;SDS011;4037;47.980;10.172;2023-12-14T00:20:14;1.60;;;1.50;;
7983;SDS011;4037;47.980;10.172;2023-12-14T00:22:40;2.23;;;1.90;;
7983;SDS011;4037;47.980;10.172;2023-12-14T00:25:06;2.70;;;1.93;;
7983;SDS011;4037;47.980;10.172;2023-12-14T00:27:32;1.50;;;1.40;;
7983;SDS011;4037;47.980;10.172;2023-12-14T00:29:58;1.90;;;1.80;;
7983;SDS011;4037;47.980;10.172;2023-12-14T00:32:24;4.50;;;1.87;;
7983;SDS011;4037;47.980;10.172;2023-12-14T00:34:50;1.83;;;1.73;;
7983;SDS011;4037;47.980;10.172;2023-12-14T00:37:16;2.00;;;1.77;;
7983;SDS011;4037;47.980;10.172;2023-12-14T00:39:42;1.67;;;1.57;;
7983;SDS011;4037;47.980;10.172;2023-12-14T00:42:08;2.30;;;2.10;;
7983;SDS011;4037;47.980;10.172;2023-12-14T00:44:34;4.90;;;1.73;;
7983;SDS011;4037;47.980;10.172;2023-12-14T00:47:00;2.70;;;2.07;;
7983;SDS011;4037;47.980;10.172;2023-12-14T00:49:27;1.90;;;1.67;;
7983;SDS011;4037;47.980;10.172;2023-12-14T00:51:53;1.90;;;1.73;;
7983;SDS011;4037;47.980;10.172;2023-12-14T00:54:19;2.50;;;1.97;;
7983;SDS011;4037;47.980;10.172;2023-12-14T00:56:45;1.83;;;1.60;;
7983;SDS011;4037;47.980;10.172;2023-12-14T00:59:11;3.50;;;1.90;;
7983;SDS011;4037;47.980;10.172;2023-12-14T01:01:37;1.90;;;1.80;;
7983;SDS011;4037;47.980;10.172;2023-12-14T01:04:03;2.00;;;1.80;;
7983;SDS011;4037;47.980;10.172;2023-12-14T01:06:29;2.10;;;1.90;;
7983;SDS011;4037;47.980;10.172;2023-12-14T01:08:55;2.23;;;1.80;;
7983;SDS011;4037;47.980;10.172;2023-12-14T01:11:21;3.93;;;2.07;;
7983;SDS011;4037;47.980;10.172;2023-12-14T01:13:47;2.27;;;2.07;;
7983;SDS011;4037;47.980;10.172;2023-12-14T01:16:13;2.30;;;2.10;;
7983;SDS011;4037;47.980;10.172;2023-12-14T01:18:40;2.33;;;1.90;;
7983;SDS011;4037;47.980;10.172;2023-12-14T01:21:06;3.23;;;2.20;;
7983;SDS011;4037;47.980;10.172;2023-12-14T01:23:31;2.93;;;2.33;;
7983;SDS011;4037;47.980;10.172;2023-12-14T01:25:57;3.40;;;3.07;;
7983;SDS011;4037;47.980;10.172;2023-12-14T01:28:23;3.67;;;3.07;;
7983;SDS011;4037;47.980;10.172;2023-12-14T01:30:49;3.80;;;2.57;;
7983;SDS011;4037;47.980;10.172;2023-12-14T01:33:15;5.27;;;2.63;;
7983;SDS011;4037;47.980;10.172;2023-12-14T01:35:41;2.77;;;2.53;;
7983;SDS011;4037;47.980;10.172;2023-12-14T01:38:07;3.33;;;2.47;;
7983;SDS011;4037;47.980;10.172;2023-12-14T01:40:33;3.00;;;2.77;;
7983;SDS011;4037;47.980;10.172;2023-12-14T01:43:08;2.37;;;2.17;;
7983;SDS011;4037;47.980;10.172;2023-12-14T01:45:35;3.33;;;2.53;;
7983;SDS011;4037;47.980;10.172;2023-12-14T01:48:01;3.27;;;2.73;;
7983;SDS011;4037;47.980;10.172;2023-12-14T01:50:27;3.23;;;2.87;;
7983;SDS011;4037;47.980;10.172;2023-12-14T01:52:53;3.97;;;3.23;;
7983;SDS011;4037;47.980;10.172;2023-12-14T01:55:19;3.37;;;2.80;;
7983;SDS011;4037;47.980;10.172;2023-12-14T01:57:45;3.30;;;3.00;;
7983;SDS011;4037;47.980;10.172;2023-12-14T02:02:52;3.53;;;3.17;;
7983;SDS011;4037;47.980;10.172;2023-12-14T02:05:18;3.47;;;3.17;;
7983;SDS011;4037;47.980;10.172;2023-12-14T02:07:44;4.77;;;3.70;;
7983;SDS011;4037;47.980;10.172;2023-12-14T02:10:10;4.60;;;4.20;;
7983;SDS011;4037;47.980;10.172;2023-12-14T02:12:36;3.60;;;3.30;;
7983;SDS011;4037;47.980;10.172;2023-12-14T02:15:02;4.13;;;3.43;;
7983;SDS011;4037;47.980;10.172;2023-12-14T02:17:28;3.67;;;3.20;;
7983;SDS011;4037;47.980;10.172;2023-12-14T02:19:54;4.93;;;3.57;;
7983;SDS011;4037;47.980;10.172;2023-12-14T02:22:21;4.20;;;3.80;;
7983;SDS011;4037;47.980;10.172;2023-12-14T02:24:47;4.20;;;3.80;;
7983;SDS011;4037;47.980;10.172;2023-12-14T02:27:13;4.57;;;3.73;;
7983;SDS011;4037;47.980;10.172;2023-12-14T02:29:39;4.43;;;3.80;;
7983;SDS011;4037;47.980;10.172;2023-12-14T02:32:05;4.10;;;3.70;;
7983;SDS011;4037;47.980;10.172;2023-12-14T02:34:31;4.03;;;3.57;;
7983;SDS011;4037;47.980;10.172;2023-12-14T02:36:57;4.73;;;4.23;;
7983;SDS011;4037;47.980;10.172;2023-12-14T02:39:23;4.13;;;3.60;;
7983;SDS011;4037;47.980;10.172;2023-12-14T02:41:49;4.30;;;3.90;;
7983;SDS011;4037;47.980;10.172;2023-12-14T02:44:15;5.20;;;4.03;;
7983;SDS011;4037;47.980;10.172;2023-12-14T02:46:41;6.83;;;3.57;;
7983;SDS011;4037;47.980;10.172;2023-12-14T02:49:08;3.93;;;3.53;;
7983;SDS011;4037;47.980;10.172;2023-12-14T02:51:33;4.00;;;3.37;;
7983;SDS011;4037;47.980;10.172;2023-12-14T02:54:00;3.93;;;3.50;;
7983;SDS011;4037;47.980;10.172;2023-12-14T02:56:25;4.47;;;3.60;;
7983;SDS011;4037;47.980;10.172;2023-12-14T02:58:51;5.00;;;3.70;;
7983;SDS011;4037;47.980;10.172;2023-12-14T03:01:19;3.10;;;2.80;;
7983;SDS011;4037;47.980;10.172;2023-12-14T03:03:49;3.90;;;3.23;;
7983;SDS011;4037;47.980;10.172;2023-12-14T03:06:15;3.60;;;3.30;;
7983;SDS011;4037;47.980;10.172;2023-12-14T03:08:41;3.50;;;3.03;;
7983;SDS011;4037;47.980;10.172;2023-12-14T03:11:07;4.23;;;3.83;;
7983;SDS011;4037;47.980;10.172;2023-12-14T03:13:33;3.80;;;3.47;;
7983;SDS011;4037;47.980;10.172;2023-12-14T03:15:59;4.50;;;3.80;;
7983;SDS011;4037;47.980;10.172;2023-12-14T03:18:25;3.60;;;3.27;;
7983;SDS011;4037;47.980;10.172;2023-12-14T03:20:51;4.40;;;3.83;;
7983;SDS011;4037;47.980;10.172;2023-12-14T03:23:17;4.50;;;3.83;;
7983;SDS011;4037;47.980;10.172;2023-12-14T03:25:43;3.77;;;3.37;;
7983;SDS011;4037;47.980;10.172;2023-12-14T03:28:09;3.37;;;3.07;;
7983;SDS011;4037;47.980;10.172;2023-12-14T03:30:35;4.10;;;3.10;;
7983;SDS011;4037;47.980;10.172;2023-12-14T03:33:01;3.83;;;3.33;;
7983;SDS011;4037;47.980;10.172;2023-12-14T03:35:27;3.97;;;3.37;;
7983;SDS011;4037;47.980;10.172;2023-12-14T03:37:53;3.47;;;3.17;;
7983;SDS011;4037;47.980;10.172;2023-12-14T03:40:19;4.00;;;3.23;;
7983;SDS011;4037;47.980;10.172;2023-12-14T03:42:45;3.47;;;3.10;;
7983;SDS011;4037;47.980;10.172;2023-12-14T03:45:11;3.90;;;3.43;;
7983;SDS011;4037;47.980;10.172;2023-12-14T03:47:37;4.07;;;3.50;;
7983;SDS011;4037;47.980;10.172;2023-12-14T03:50:03;5.77;;;3.70;;
7983;SDS011;4037;47.980;10.172;2023-12-14T03:52:29;5.13;;;3.30;;
7983;SDS011;4037;47.980;10.172;2023-12-14T03:54:56;5.10;;;3.47;;
7983;SDS011;4037;47.980;10.172;2023-12-14T03:57:22;3.37;;;3.03;;
7983;SDS011;4037;47.980;10.172;2023-12-14T03:59:48;3.67;;;3.37;;
7983;SDS011;4037;47.980;10.172;2023-12-14T04:02:14;3.33;;;3.03;;
7983;SDS011;4037;47.980;10.172;2023-12-14T04:04:40;4.00;;;3.17;;
7983;SDS011;4037;47.980;10.172;2023-12-14T04:07:06;3.50;;;3.13;;
7983;SDS011;4037;47.980;10.172;2023-12-14T04:09:32;5.50;;;3.40;;
7983;SDS011;4037;47.980;10.172;2023-12-14T04:11:58;4.00;;;3.20;;
7983;SDS011;4037;47.980;10.172;2023-12-14T04:14:24;5.47;;;3.60;;
7983;SDS011;4037;47.980;10.172;2023-12-14T04:16:50;5.03;;;3.60;;
7983;SDS011;4037;47.980;10.172;2023-12-14T04:19:16;4.83;;;3.30;;
7983;SDS011;4037;47.980;10.172;2023-12-14T04:21:42;4.17;;;3.77;;
7983;SDS011;4037;47.980;10.172;2023-12-14T04:24:08;5.20;;;3.80;;
7983;SDS011;4037;47.980;10.172;2023-12-14T04:26:34;6.67;;;4.37;;
7983;SDS011;4037;47.980;10.172;2023-12-14T04:29:00;3.83;;;3.40;;
7983;SDS011;4037;47.980;10.172;2023-12-14T04:31:26;4.57;;;3.73;;
7983;SDS011;4037;47.980;10.172;2023-12-14T04:33:52;4.03;;;3.63;;
7983;SDS011;4037;47.980;10.172;2023-12-14T04:36:18;3.90;;;2.83;;
7983;SDS011;4037;47.980;10.172;2023-12-14T04:38:44;5.23;;;3.30;;
7983;SDS011;4037;47.980;10.172;2023-12-14T04:41:11;3.63;;;3.33;;
7983;SDS011;4037;47.980;10.172;2023-12-14T04:43:37;3.20;;;2.90;;
7983;SDS011;4037;47.980;10.172;2023-12-14T04:46:03;3.20;;;2.90;;
7983;SDS011;4037;47.980;10.172;2023-12-14T04:48:31;4.13;;;3.20;;
7983;SDS011;4037;47.980;10.172;2023-12-14T04:50:57;3.43;;;2.67;;
7983;SDS011;4037;47.980;10.172;2023-12-14T04:53:23;3.43;;;3.17;;
7983;SDS011;4037;47.980;10.172;2023-12-14T04:55:49;3.70;;;3.10;;
7983;SDS011;4037;47.980;10.172;2023-12-14T04:58:15;4.93;;;3.10;;
7983;SDS011;4037;47.980;10.172;2023-12-14T05:00:41;3.90;;;2.90;;
7983;SDS011;4037;47.980;10.172;2023-12-14T05:03:07;3.30;;;3.00;;
7983;SDS011;4037;47.980;10.172;2023-12-14T05:05:33;4.30;;;2.97;;
7983;SDS011;4037;47.980;10.172;2023-12-14T05:07:59;3.23;;;2.93;;
7983;SDS011;4037;47.980;10.172;2023-12-14T05:10:25;3.80;;;2.97;;
7983;SDS011;4037;47.980;10.172;2023-12-14T05:12:51;2.97;;;2.70;;
7983;SDS011;4037;47.980;10.172;2023-12-14T05:15:17;3.10;;;2.90;;
7983;SDS011;4037;47.980;10.172;2023-12-14T05:17:45;3.23;;;2.93;;
7983;SDS011;4037;47.980;10.172;2023-12-14T05:20:11;3.20;;;2.90;;
7983;SDS011;4037;47.980;10.172;2023-12-14T05:22:37;3.63;;;3.00;;
7983;SDS011;4037;47.980;10.172;2023-12-14T05:25:03;4.03;;;3.63;;
7983;SDS011;4037;47.980;10.172;2023-12-14T05:27:29;4.57;;;3.17;;
7983;SDS011;4037;47.980;10.172;2023-12-14T05:29:55;3.30;;;3.07;;
7983;SDS011;4037;47.980;10.172;2023-12-14T05:32:21;3.73;;;3.30;;
7983;SDS011;4037;47.980;10.172;2023-12-14T05:34:47;3.60;;;3.30;;
7983;SDS011;4037;47.980;10.172;2023-12-14T05:37:13;5.17;;;3.23;;
7983;SDS011;4037;47.980;10.172;2023-12-14T05:39:42;3.97;;;3.23;;
7983;SDS011;4037;47.980;10.172;2023-12-14T05:42:10;3.73;;;3.43;;
7983;SDS011;4037;47.980;10.172;2023-12-14T05:44:36;3.73;;;3.07;;
7983;SDS011;4037;47.980;10.172;2023-12-14T05:47:02;4.43;;;3.30;;
7983;SDS011;4037;47.980;10.172;2023-12-14T05:49:28;3.67;;;3.20;;
7983;SDS011;4037;47.980;10.172;2023-12-14T05:51:54;5.03;;;3.40;;
7983;SDS011;4037;47.980;10.172;2023-12-14T05:54:20;3.27;;;2.90;;
7983;SDS011;4037;47.980;10.172;2023-12-14T05:56:46;4.77;;;4.37;;
7983;SDS011;4037;47.980;10.172;2023-12-14T05:59:12;4.20;;;3.33;;
7983;SDS011;4037;47.980;10.172;2023-12-14T06:01:38;4.80;;;3.67;;
7983;SDS011;4037;47.980;10.172;2023-12-14T06:04:04;5.97;;;5.00;;
7983;SDS011;4037;47.980;10.172;2023-12-14T06:06:30;4.50;;;3.97;;
7983;SDS011;4037;47.980;10.172;2023-12-14T06:08:56;4.30;;;3.90;;
7983;SDS011;4037;47.980;10.172;2023-12-14T06:11:22;4.17;;;3.70;;
7983;SDS011;4037;47.980;10.172;2023-12-14T06:13:48;4.53;;;3.90;;
7983;SDS011;4037;47.980;10.172;2023-12-14T06:16:14;3.47;;;3.17;;
7983;SDS011;4037;47.980;10.172;2023-12-14T06:18:40;3.90;;;3.50;;
7983;SDS011;4037;47.980;10.172;2023-12-14T06:21:08;3.53;;;3.20;;
7983;SDS011;4037;47.980;10.172;2023-12-14T06:23:35;3.60;;;3.10;;
7983;SDS011;4037;47.980;10.172;2023-12-14T06:26:02;4.43;;;2.83;;
7983;SDS011;4037;47.980;10.172;2023-12-14T06:28:29;4.00;;;3.03;;
7983;SDS011;4037;47.980;10.172;2023-12-14T06:30:55;5.17;;;3.57;;
7983;SDS011;4037;47.980;10.172;2023-12-14T06:33:22;3.93;;;3.50;;
7983;SDS011;4037;47.980;10.172;2023-12-14T06:35:48;4.07;;;3.63;;
7983;SDS011;4037;47.980;10.172;2023-12-14T06:38:14;5.60;;;4.40;;
7983;SDS011;4037;47.980;10.172;2023-12-14T06:40:41;4.40;;;4.00;;
7983;SDS011;4037;47.980;10.172;2023-12-14T06:43:07;3.90;;;3.50;;
7983;SDS011;4037;47.980;10.172;2023-12-14T06:45:36;4.30;;;3.87;;
7983;SDS011;4037;47.980;10.172;2023-12-14T06:48:02;4.47;;;3.70;;
7983;SDS011;4037;47.980;10.172;2023-12-14T06:50:28;4.77;;;4.33;;
7983;SDS011;4037;47.980;10.172;2023-12-14T06:52:54;5.03;;;4.03;;
7983;SDS011;4037;47.980;10.172;2023-12-14T06:55:20;5.07;;;4.27;;
7983;SDS011;4037;47.980;10.172;2023-12-14T06:57:46;4.67;;;3.60;;
7983;SDS011;4037;47.980;10.172;2023-12-14T07:00:12;4.97;;;4.00;;
7983;SDS011;4037;47.980;10.172;2023-12-14T07:02:38;4.00;;;3.40;;
7983;SDS011;4037;47.980;10.172;2023-12-14T07:05:04;5.17;;;4.17;;
7983;SDS011;4037;47.980;10.172;2023-12-14T07:07:30;4.50;;;3.80;;
7983;SDS011;4037;47.980;10.172;2023-12-14T07:09:56;5.10;;;4.57;;
7983;SDS011;4037;47.980;10.172;2023-12-14T07:12:22;5.03;;;4.00;;
7983;SDS011;4037;47.980;10.172;2023-12-14T07:14:48;4.60;;;4.03;;
7983;SDS011;4037;47.980;10.172;2023-12-14T07:17:15;6.13;;;4.17;;
7983;SDS011;4037;47.980;10.172;2023-12-14T07:19:41;4.97;;;4.10;;
7983;SDS011;4037;47.980;10.172;2023-12-14T07:22:07;4.87;;;4.20;;
7983;SDS011;4037;47.980;10.172;2023-12-14T07:24:33;5.20;;;4.63;;
7983;SDS011;4037;47.980;10.172;2023-12-14T07:26:59;4.87;;;4.30;;
7983;SDS011;4037;47.980;10.172;2023-12-14T07:29:25;5.20;;;3.90;;
7983;SDS011;4037;47.980;10.172;2023-12-14T07:31:52;6.03;;;4.67;;
7983;SDS011;4037;47.980;10.172;2023-12-14T07:34:18;4.80;;;4.20;;
7983;SDS011;4037;47.980;10.172;2023-12-14T07:36:45;5.83;;;4.63;;
7983;SDS011;4037;47.980;10.172;2023-12-14T07:39:11;4.93;;;4.23;;
7983;SDS011;4037;47.980;10.172;2023-12-14T07:41:37;5.70;;;4.67;;
7983;SDS011;4037;47.980;10.172;2023-12-14T07:44:03;4.23;;;3.83;;
7983;SDS011;4037;47.980;10.172;2023-12-14T07:46:29;5.80;;;4.87;;
7983;SDS011;4037;47.980;10.172;2023-12-14T07:48:55;5.97;;;5.07;;
7983;SDS011;4037;47.980;10.172;2023-12-14T07:51:21;7.80;;;5.17;;
7983;SDS011;4037;47.980;10.172;2023-12-14T07:53:47;6.37;;;5.00;;
7983;SDS011;4037;47.980;10.172;2023-12-14T07:56:13;6.20;;;4.70;;
7983;SDS011;4037;47.980;10.172;2023-12-14T07:58:39;6.80;;;4.50;;
7983;SDS011;4037;47.980;10.172;2023-12-14T08:01:05;5.50;;;4.47;;
7983;SDS011;4037;47.980;10.172;2023-12-14T08:03:32;6.00;;;4.87;;
7983;SDS011;4037;47.980;10.172;2023-12-14T08:05:58;5.50;;;4.70;;
7983;SDS011;4037;47.980;10.172;2023-12-14T08:08:23;6.07;;;4.50;;
7983;SDS011;4037;47.980;10.172;2023-12-14T08:10:50;6.77;;;5.23;;
7983;SDS011;4037;47.980;10.172;2023-12-14T08:13:16;5.83;;;4.57;;
7983;SDS011;4037;47.980;10.172;2023-12-14T08:15:42;8.17;;;4.57;;
7983;SDS011;4037;47.980;10.172;2023-12-14T08:18:08;5.83;;;4.70;;
7983;SDS011;4037;47.980;10.172;2023-12-14T08:20:34;7.00;;;4.17;;
7983;SDS011;4037;47.980;10.172;2023-12-14T08:23:00;4.03;;;3.57;;
7983;SDS011;4037;47.980;10.172;2023-12-14T08:25:26;4.07;;;3.63;;
7983;SDS011;4037;47.980;10.172;2023-12-14T08:27:52;4.80;;;4.27;;
7983;SDS011;4037;47.980;10.172;2023-12-14T08:30:18;4.70;;;3.83;;
7983;SDS011;4037;47.980;10.172;2023-12-14T08:32:44;4.67;;;3.87;;
7983;SDS011;4037;47.980;10.172;2023-12-14T08:35:10;4.80;;;4.20;;
7983;SDS011;4037;47.980;10.172;2023-12-14T08:37:36;4.47;;;3.67;;
7983;SDS011;4037;47.980;10.172;2023-12-14T08:40:02;3.93;;;3.53;;
7983;SDS011;4037;47.980;10.172;2023-12-14T08:42:28;3.83;;;3.43;;
7983;SDS011;4037;47.980;10.172;2023-12-14T08:44:54;4.07;;;3.67;;
7983;SDS011;4037;47.980;10.172;2023-12-14T08:47:20;4.33;;;3.93;;
7983;SDS011;4037;47.980;10.172;2023-12-14T08:49:46;5.10;;;4.17;;
7983;SDS011;4037;47.980;10.172;2023-12-14T08:52:12;5.10;;;4.60;;
7983;SDS011;4037;47.980;10.172;2023-12-14T08:54:39;5.40;;;4.20;;
7983;SDS011;4037;47.980;10.172;2023-12-14T08:57:07;3.37;;;3.07;;
7983;SDS011;4037;47.980;10.172;2023-12-14T08:59:36;4.73;;;3.57;;
7983;SDS011;4037;47.980;10.172;2023-12-14T09:02:02;3.50;;;3.20;;
7983;SDS011;4037;47.980;10.172;2023-12-14T09:04:28;4.00;;;3.60;;
7983;SDS011;4037;47.980;10.172;2023-12-14T09:06:54;5.23;;;4.30;;
7983;SDS011;4037;47.980;10.172;2023-12-14T09:09:20;4.80;;;3.40;;
7983;SDS011;4037;47.980;10.172;2023-12-14T09:11:46;5.30;;;3.00;;
7983;SDS011;4037;47.980;10.172;2023-12-14T09:14:12;3.57;;;2.57;;
7983;SDS011;4037;47.980;10.172;2023-12-14T09:16:39;3.50;;;2.83;;
7983;SDS011;4037;47.980;10.172;2023-12-14T09:19:04;3.43;;;3.13;;
7983;SDS011;4037;47.980;10.172;2023-12-14T09:21:31;4.87;;;2.83;;
7983;SDS011;4037;47.980;10.172;2023-12-14T09:23:57;3.03;;;2.73;;
7983;SDS011;4037;47.980;10.172;2023-12-14T09:26:23;2.53;;;2.33;;
7983;SDS011;4037;47.980;10.172;2023-12-14T09:28:49;3.57;;;2.27;;
7983;SDS011;4037;47.980;10.172;2023-12-14T09:31:15;2.60;;;2.40;;
7983;SDS011;4037;47.980;10.172;2023-12-14T09:33:41;2.20;;;2.00;;
7983;SDS011;4037;47.980;10.172;2023-12-14T09:36:08;2.50;;;2.30;;
7983;SDS011;4037;47.980;10.172;2023-12-14T09:38:34;2.50;;;2.30;;
7983;SDS011;4037;47.980;10.172;2023-12-14T09:41:01;2.87;;;2.60;;
7983;SDS011;4037;47.980;10.172;2023-12-14T09:43:27;2.27;;;2.07;;
7983;SDS011;4037;47.980;10.172;2023-12-14T09:45:54;2.47;;;2.27;;
7983;SDS011;4037;47.980;10.172;2023-12-14T09:48:20;2.90;;;2.60;;
7983;SDS011;4037;47.980;10.172;2023-12-14T09:50:47;3.03;;;2.67;;
7983;SDS011;4037;47.980;10.172;2023-12-14T09:53:15;2.60;;;2.40;;
7983;SDS011;4037;47.980;10.172;2023-12-14T09:55:41;3.00;;;2.70;;
7983;SDS011;4037;47.980;10.172;2023-12-14T09:58:07;2.80;;;2.60;;
7983;SDS011;4037;47.980;10.172;2023-12-14T10:03:16;2.53;;;2.33;;
7983;SDS011;4037;47.980;10.172;2023-12-14T10:05:43;2.50;;;2.30;;
7983;SDS011;4037;47.980;10.172;2023-12-14T10:08:09;2.97;;;2.77;;
7983;SDS011;4037;47.980;10.172;2023-12-14T10:10:35;3.40;;;2.70;;
7983;SDS011;4037;47.980;10.172;2023-12-14T10:13:01;3.23;;;2.73;;
7983;SDS011;4037;47.980;10.172;2023-12-14T10:15:27;3.20;;;2.90;;
7983;SDS011;4037;47.980;10.172;2023-12-14T10:17:53;3.20;;;2.57;;
7983;SDS011;4037;47.980;10.172;2023-12-14T10:20:22;3.17;;;2.97;;
7983;SDS011;4037;47.980;10.172;2023-12-14T10:22:50;3.97;;;3.33;;
7983;SDS011;4037;47.980;10.172;2023-12-14T10:25:19;3.73;;;3.30;;
7983;SDS011;4037;47.980;10.172;2023-12-14T10:27:46;3.67;;;3.17;;
7983;SDS011;4037;47.980;10.172;2023-12-14T10:30:15;3.20;;;2.90;;
7983;SDS011;4037;47.980;10.172;2023-12-14T10:32:42;3.80;;;2.63;;
7983;SDS011;4037;47.980;10.172;2023-12-14T10:35:08;3.47;;;3.17;;
7983;SDS011;4037;47.980;10.172;2023-12-14T10:37:36;3.30;;;3.00;;
7983;SDS011;4037;47.980;10.172;2023-12-14T10:40:04;4.07;;;3.60;;
7983;SDS011;4037;47.980;10.172;2023-12-14T10:42:31;3.63;;;3.10;;
7983;SDS011;4037;47.980;10.172;2023-12-14T10:44:57;4.40;;;3.53;;
7983;SDS011;4037;47.980;10.172;2023-12-14T10:47:25;3.63;;;3.17;;
7983;SDS011;4037;47.980;10.172;2023-12-14T10:49:51;4.33;;;3.40;;
7983;SDS011;4037;47.980;10.172;2023-12-14T10:52:18;3.40;;;3.10;;
7983;SDS011;4037;47.980;10.172;2023-12-14T10:54:45;3.70;;;2.97;;
7983;SDS011;4037;47.980;10.172;2023-12-14T10:57:12;4.57;;;3.90;;
7983;SDS011;4037;47.980;10.172;2023-12-14T10:59:38;3.57;;;2.97;;
7983;SDS011;4037;47.980;10.172;2023-12-14T11:02:07;3.57;;;3.27;;
7983;SDS011;4037;47.980;10.172;2023-12-14T11:04:53;3.93;;;3.33;;
7983;SDS011;4037;47.980;10.172;2023-12-14T11:07:42;4.33;;;3.70;;
7983;SDS011;4037;47.980;10.172;2023-12-14T11:10:06;4.00;;;3.07;;
7983;SDS011;4037;47.980;10.172;2023-12-14T11:12:33;3.80;;;3.50;;
7983;SDS011;4037;47.980;10.172;2023-12-14T11:14:59;4.73;;;4.00;;
7983;SDS011;4037;47.980;10.172;2023-12-14T11:17:25;4.23;;;3.63;;
7983;SDS011;4037;47.980;10.172;2023-12-14T11:19:54;4.00;;;3.60;;
7983;SDS011;4037;47.980;10.172;2023-12-14T11:22:24;5.57;;;4.13;;
7983;SDS011;4037;47.980;10.172;2023-12-14T11:24:53;4.87;;;4.00;;
7983;SDS011;4037;47.980;10.172;2023-12-14T11:27:25;3.90;;;3.30;;
7983;SDS011;4037;47.980;10.172;2023-12-14T11:29:52;4.10;;;3.27;;
7983;SDS011;4037;47.980;10.172;2023-12-14T11:32:18;4.13;;;3.70;;
7983;SDS011;4037;47.980;10.172;2023-12-14T11:34:47;3.97;;;3.13;;
7983;SDS011;4037;47.980;10.172;2023-12-14T11:37:13;5.10;;;3.27;;
7983;SDS011;4037;47.980;10.172;2023-12-14T11:39:40;4.30;;;3.90;;
7983;SDS011;4037;47.980;10.172;2023-12-14T11:42:06;4.17;;;3.43;;
7983;SDS011;4037;47.980;10.172;2023-12-14T11:44:33;3.97;;;3.57;;
7983;SDS011;4037;47.980;10.172;2023-12-14T11:47:00;4.83;;;3.90;;
7983;SDS011;4037;47.980;10.172;2023-12-14T11:49:26;5.37;;;3.77;;
7983;SDS011;4037;47.980;10.172;2023-12-14T11:51:54;3.67;;;3.30;;
7983;SDS011;4037;47.980;10.172;2023-12-14T11:54:20;4.30;;;3.80;;
7983;SDS011;4037;47.980;10.172;2023-12-14T11:56:47;4.33;;;3.37;;
7983;SDS011;4037;47.980;10.172;2023-12-14T11:59:14;5.23;;;4.60;;
7983;SDS011;4037;47.980;10.172;2023-12-14T12:01:52;7.60;;;5.17;;
7983;SDS011;4037;47.980;10.172;2023-12-14T12:04:19;5.27;;;4.37;;
7983;SDS011;4037;47.980;10.172;2023-12-14T12:06:45;6.83;;;4.73;;
7983;SDS011;4037;47.980;10.172;2023-12-14T12:09:11;4.60;;;4.13;;
7983;SDS011;4037;47.980;10.172;2023-12-14T12:11:38;6.70;;;4.53;;
7983;SDS011;4037;47.980;10.172;2023-12-14T12:14:04;6.27;;;4.23;;
7983;SDS011;4037;47.980;10.172;2023-12-14T12:16:30;4.60;;;4.20;;
7983;SDS011;4037;47.980;10.172;2023-12-14T12:18:56;4.90;;;4.43;;
7983;SDS011;4037;47.980;10.172;2023-12-14T12:21:22;4.80;;;3.80;;
7983;SDS011;4037;47.980;10.172;2023-12-14T12:23:48;5.60;;;3.83;;
7983;SDS011;4037;47.980;10.172;2023-12-14T12:26:14;5.53;;;3.80;;
7983;SDS011;4037;47.980;10.172;2023-12-14T12:28:40;7.03;;;4.47;;
7983;SDS011;4037;47.980;10.172;2023-12-14T12:31:06;4.90;;;3.80;;
7983;SDS011;4037;47.980;10.172;2023-12-14T12:33:32;4.23;;;3.60;;
7983;SDS011;4037;47.980;10.172;2023-12-14T12:36:02;4.80;;;3.50;;
7983;SDS011;4037;47.980;10.172;2023-12-14T12:38:28;6.57;;;4.03;;
7983;SDS011;4037;47.980;10.172;2023-12-14T12:40:54;4.83;;;3.47;;
7983;SDS011;4037;47.980;10.172;2023-12-14T12:43:20;3.20;;;2.60;;
7983;SDS011;4037;47.980;10.172;2023-12-14T12:45:46;5.07;;;4.20;;
7983;SDS011;4037;47.980;10.172;2023-12-14T12:48:12;3.80;;;2.73;;
7983;SDS011;4037;47.980;10.172;2023-12-14T12:50:39;4.20;;;3.13;;
7983;SDS011;4037;47.980;10.172;2023-12-14T12:53:05;3.23;;;2.53;;
7983;SDS011;4037;47.980;10.172;2023-12-14T12:55:31;2.73;;;2.10;;
7983;SDS011;4037;47.980;10.172;2023-12-14T12:57:57;2.50;;;2.30;;
7983;SDS011;4037;47.980;10.172;2023-12-14T13:00:29;2.50;;;2.10;;
7983;SDS011;4037;47.980;10.172;2023-12-14T13:02:55;3.87;;;2.60;;
7983;SDS011;4037;47.980;10.172;2023-12-14T13:05:21;3.63;;;2.67;;
7983;SDS011;4037;47.980;10.172;2023-12-14T13:07:50;3.07;;;2.47;;
7983;SDS011;4037;47.980;10.172;2023-12-14T13:10:15;3.57;;;3.03;;
7983;SDS011;4037;47.980;10.172;2023-12-14T13:12:44;4.20;;;3.43;;
7983;SDS011;4037;47.980;10.172;2023-12-14T13:15:09;2.77;;;2.57;;
7983;SDS011;4037;47.980;10.172;2023-12-14T13:17:35;2.30;;;2.00;;
7983;SDS011;4037;47.980;10.172;2023-12-14T13:20:02;3.13;;;2.80;;
7983;SDS011;4037;47.980;10.172;2023-12-14T13:22:28;4.87;;;2.90;;
7983;SDS011;4037;47.980;10.172;2023-12-14T13:24:54;4.07;;;2.23;;
7983;SDS011;4037;47.980;10.172;2023-12-14T13:27:20;2.43;;;2.00;;
7983;SDS011;4037;47.980;10.172;2023-12-14T13:29:46;2.30;;;1.87;;
7983;SDS011;4037;47.980;10.172;2023-12-14T13:32:12;2.23;;;2.03;;
7983;SDS011;4037;47.980;10.172;2023-12-14T13:34:38;2.70;;;2.17;;
7983;SDS011;4037;47.980;10.172;2023-12-14T13:37:04;2.77;;;2.10;;
7983;SDS011;4037;47.980;10.172;2023-12-14T13:39:30;2.43;;;2.10;;
7983;SDS011;4037;47.980;10.172;2023-12-14T13:41:59;2.20;;;1.90;;
7983;SDS011;4037;47.980;10.172;2023-12-14T13:44:25;2.17;;;1.73;;
7983;SDS011;4037;47.980;10.172;2023-12-14T13:46:51;3.77;;;2.23;;
7983;SDS011;4037;47.980;10.172;2023-12-14T13:49:17;2.60;;;1.90;;
7983;SDS011;4037;47.980;10.172;2023-12-14T13:51:43;2.27;;;2.00;;
7983;SDS011;4037;47.980;10.172;2023-12-14T13:54:09;3.03;;;2.40;;
7983;SDS011;4037;47.980;10.172;2023-12-14T13:56:35;2.70;;;1.90;;
7983;SDS011;4037;47.980;10.172;2023-12-14T13:59:00;5.20;;;2.00;;
7983;SDS011;4037;47.980;10.172;2023-12-14T14:01:26;2.23;;;1.63;;
7983;SDS011;4037;47.980;10.172;2023-12-14T14:03:52;1.93;;;1.80;;
7983;SDS011;4037;47.980;10.172;2023-12-14T14:06:17;1.83;;;1.63;;
7983;SDS011;4037;47.980;10.172;2023-12-14T14:08:43;3.13;;;2.10;;
7983;SDS011;4037;47.980;10.172;2023-12-14T14:11:09;2.47;;;2.10;;
7983;SDS011;4037;47.980;10.172;2023-12-14T14:13:34;2.60;;;2.00;;
7983;SDS011;4037;47.980;10.172;2023-12-14T14:16:00;2.20;;;2.00;;
7983;SDS011;4037;47.980;10.172;2023-12-14T14:18:26;2.70;;;1.90;;
7983;SDS011;4037;47.980;10.172;2023-12-14T14:20:51;2.43;;;1.50;;
7983;SDS011;4037;47.980;10.172;2023-12-14T14:23:17;1.67;;;1.57;;
7983;SDS011;4037;47.980;10.172;2023-12-14T14:25:43;2.43;;;1.80;;
7983;SDS011;4037;47.980;10.172;2023-12-14T14:28:09;1.93;;;1.60;;
7983;SDS011;4037;47.980;10.172;2023-12-14T14:30:34;2.50;;;2.00;;
7983;SDS011;4037;47.980;10.172;2023-12-14T14:33:00;1.60;;;1.50;;
7983;SDS011;4037;47.980;10.172;2023-12-14T14:35:26;3.17;;;2.07;;
7983;SDS011;4037;47.980;10.172;2023-12-14T14:37:53;1.50;;;1.40;;
7983;SDS011;4037;47.980;10.172;2023-12-14T14:40:19;1.93;;;1.50;;
7983;SDS011;4037;47.980;10.172;2023-12-14T14:42:45;1.63;;;1.50;;
7983;SDS011;4037;47.980;10.172;2023-12-14T14:45:11;2.63;;;1.70;;
7983;SDS011;4037;47.980;10.172;2023-12-14T14:47:37;1.50;;;1.40;;
7983;SDS011;4037;47.980;10.172;2023-12-14T14:50:03;3.10;;;1.80;;
7983;SDS011;4037;47.980;10.172;2023-12-14T14:52:31;2.33;;;1.50;;
7983;SDS011;4037;47.980;10.172;2023-12-14T14:54:57;1.70;;;1.60;;
7983;SDS011;4037;47.980;10.172;2023-12-14T14:57:23;1.90;;;1.40;;
7983;SDS011;4037;47.980;10.172;2023-12-14T14:59:50;1.77;;;1.67;;